Time;durP1;ratioP1;P1;durP2;ratioP2;P2;SDS_P1;SDS_P2;PMS_P1;PMS_P2;Temp;Humidity;BMP_temperature;BMP_pressure;BME280_temperature;BME280_humidity;BME280_pressure;Samples;Min_cycle;Max_cycle;Signal;HPM_P1;HPM_P2
2022/01/12 00:00:57;;;;;;;9.13;2.45;;;21.70;46.10;;;;;;5098903;28;20060;-52
2022/01/12 00:03:23;;;;;;;3.67;1.10;;;21.70;46.10;;;;;;5099632;28;20028;-50
2022/01/12 00:05:49;;;;;;;3.63;1.27;;;21.60;46.00;;;;;;5100369;28;20065;-49
2022/01/12 00:08:15;;;;;;;5.28;1.00;;;21.60;46.00;;;;;;5099243;28;20503;-50
2022/01/12 00:10:43;;;;;;;5.53;1.13;;;21.50;46.00;;;;;;5096616;28;20036;-50
2022/01/12 00:13:09;;;;;;;2.33;0.85;;;21.50;46.00;;;;;;5099315;28;20631;-46
2022/01/12 00:15:35;;;;;;;3.03;1.20;;;21.40;46.00;;;;;;5101500;28;20032;-51
2022/01/12 00:18:01;;;;;;;2.95;0.88;;;21.40;46.00;;;;;;5099061;28;20027;-51
2022/01/12 00:20:27;;;;;;;1.92;0.88;;;21.40;46.10;;;;;;5099963;28;20036;-50
2022/01/12 00:22:54;;;;;;;3.42;0.80;;;21.30;46.10;;;;;;5103128;28;20117;-51
2022/01/12 00:33:16;;;;;;;2.22;0.75;;;21.10;46.20;;;;;;5102383;28;20078;-51
2022/01/12 00:35:43;;;;;;;4.78;0.75;;;21.10;46.30;;;;;;5102915;28;20028;-49
2022/01/12 00:38:10;;;;;;;2.13;0.90;;;21.00;46.30;;;;;;5101740;28;20086;-47
2022/01/12 00:40:44;;;;;;;1.52;0.73;;;21.00;46.40;;;;;;5103349;28;20728;-48
2022/01/12 00:43:10;;;;;;;2.65;0.80;;;21.00;46.50;;;;;;5085676;28;20100;-48
2022/01/12 00:45:45;;;;;;;1.77;0.60;;;20.90;46.40;;;;;;5103302;28;20047;-47
2022/01/12 00:48:11;;;;;;;1.02;0.60;;;20.80;46.30;;;;;;5104492;28;20256;-48
2022/01/12 00:50:37;;;;;;;1.95;0.75;;;20.80;46.40;;;;;;5102426;28;20032;-50
2022/01/12 00:53:04;;;;;;;1.38;0.50;;;20.80;46.50;;;;;;5102836;28;20024;-51
2022/01/12 00:55:31;;;;;;;2.03;0.60;;;20.70;46.50;;;;;;5103904;28;20103;-49
2022/01/12 00:57:58;;;;;;;1.80;0.57;;;20.60;46.50;;;;;;5084279;28;20024;-49
2022/01/12 01:00:25;;;;;;;1.17;0.50;;;20.60;46.60;;;;;;5102742;28;20036;-48
2022/01/12 01:02:51;;;;;;;1.52;0.52;;;20.60;46.60;;;;;;5104400;28;20024;-48
2022/01/12 01:05:21;;;;;;;0.93;0.50;;;20.50;46.70;;;;;;5084193;28;20101;-52
2022/01/12 01:07:47;;;;;;;0.93;0.50;;;20.60;46.70;;;;;;5102770;28;20819;-52
2022/01/12 01:10:20;;;;;;;1.07;0.50;;;20.60;46.50;;;;;;5101711;28;20075;-48
2022/01/12 01:12:47;;;;;;;1.45;0.50;;;20.60;46.40;;;;;;5103689;28;20028;-49
2022/01/12 01:15:17;;;;;;;1.02;0.50;;;20.50;46.60;;;;;;5104049;28;20054;-48
2022/01/12 01:25:42;;;;;;;0.68;0.40;;;20.40;46.90;;;;;;5102232;28;20602;-49
2022/01/12 01:28:08;;;;;;;0.93;0.40;;;20.50;46.90;;;;;;5102394;28;20032;-51
2022/01/12 01:30:36;;;;;;;0.40;0.40;;;20.50;46.80;;;;;;5102042;28;20552;-53
2022/01/12 01:33:07;;;;;;;0.43;0.43;;;20.40;46.70;;;;;;5083180;28;20044;-48
2022/01/12 01:35:35;;;;;;;1.20;0.40;;;20.40;46.90;;;;;;5102743;28;20031;-49
2022/01/12 01:38:02;;;;;;;0.70;0.32;;;20.30;46.90;;;;;;5086391;28;20028;-49
2022/01/12 01:40:29;;;;;;;0.65;0.50;;;20.20;47.00;;;;;;5104580;28;20110;-49
2022/01/12 01:53:46;;;;;;;1.65;0.50;;;20.30;46.90;;;;;;5101384;28;20100;-50
2022/01/12 01:56:12;;;;;;;0.88;0.57;;;20.20;47.10;;;;;;5102091;28;20036;-47
2022/01/12 01:58:39;;;;;;;0.63;0.40;;;20.20;47.20;;;;;;5100612;28;20084;-48
2022/01/12 02:01:05;;;;;;;0.93;0.40;;;20.10;47.30;;;;;;5101634;28;20024;-48
2022/01/12 02:03:31;;;;;;;0.43;0.38;;;20.20;47.30;;;;;;5104314;28;20024;-50
2022/01/12 02:06:00;;;;;;;0.55;0.40;;;20.30;47.50;;;;;;5101487;28;20040;-49
2022/01/12 02:08:27;;;;;;;0.38;0.35;;;20.30;47.40;;;;;;5101603;28;20020;-48
2022/01/12 02:10:57;;;;;;;0.50;0.50;;;20.30;47.20;;;;;;5102402;28;20055;-48
2022/01/12 02:13:23;;;;;;;0.65;0.50;;;20.20;47.20;;;;;;5102164;28;20039;-50
2022/01/12 02:15:50;;;;;;;2.15;0.50;;;20.10;47.30;;;;;;5101697;28;20032;-53
2022/01/12 02:18:31;;;;;;;0.70;0.50;;;20.10;47.40;;;;;;5082710;28;20122;-51
2022/01/12 02:40:33;;;;;;;0.57;0.40;;;20.20;47.60;;;;;;5039284;28;20038;-49
2022/01/12 02:43:10;;;;;;;0.80;0.50;;;20.20;47.40;;;;;;5038753;28;20017;-51
2022/01/12 02:51:28;;;;;;;0.93;0.68;;;20.10;47.50;;;;;;5038740;28;20094;-49
2022/01/12 02:53:54;;;;;;;0.55;0.40;;;20.10;47.60;;;;;;5038435;28;20067;-49
2022/01/12 02:56:28;;;;;;;1.48;0.70;;;20.20;47.60;;;;;;5039255;28;20084;-50
2022/01/12 02:58:59;;;;;;;0.77;0.65;;;20.20;48.20;;;;;;5035607;28;20120;-48
2022/01/12 03:04:06;;;;;;;0.93;0.60;;;20.20;47.40;;;;;;5038537;28;20116;-49
2022/01/12 03:06:36;;;;;;;0.93;0.60;;;20.10;47.50;;;;;;5038068;28;20046;-51
2022/01/12 03:09:03;;;;;;;1.17;0.70;;;20.00;47.50;;;;;;5038767;28;20578;-48
2022/01/12 03:11:29;;;;;;;0.68;0.60;;;20.10;47.60;;;;;;5057249;28;20048;-49
2022/01/12 03:13:55;;;;;;;0.73;0.55;;;20.20;47.70;;;;;;5099436;28;20024;-51
2022/01/12 03:16:24;;;;;;;0.88;0.50;;;20.20;47.70;;;;;;5102912;28;20077;-52
2022/01/12 03:18:52;;;;;;;0.68;0.50;;;20.20;47.40;;;;;;5100030;28;20370;-47
2022/01/12 03:21:20;;;;;;;0.98;0.60;;;20.20;47.40;;;;;;5100506;28;20709;-52
2022/01/12 03:23:47;;;;;;;1.08;0.50;;;20.10;47.40;;;;;;5100625;28;20123;-47
2022/01/12 03:26:13;;;;;;;0.80;0.63;;;20.10;47.60;;;;;;5100911;28;20032;-48
2022/01/12 03:28:41;;;;;;;0.98;0.70;;;20.00;47.60;;;;;;5099039;28;20032;-47
2022/01/12 03:34:29;;;;;;;0.90;0.60;;;20.20;47.70;;;;;;5102927;28;20028;-51
2022/01/12 03:39:11;;;;;;;0.73;0.68;;;20.20;47.40;;;;;;5099568;28;20416;-50
2022/01/12 03:41:37;;;;;;;1.15;0.85;;;20.20;47.50;;;;;;5082599;28;20036;-49
2022/01/12 03:44:06;;;;;;;1.03;0.93;;;20.10;47.50;;;;;;5100189;28;20024;-51
2022/01/12 03:46:38;;;;;;;1.63;1.10;;;20.00;47.60;;;;;;5100365;28;20033;-50
2022/01/12 03:49:04;;;;;;;0.88;0.70;;;20.10;47.70;;;;;;5098182;28;20028;-48
2022/01/12 03:51:31;;;;;;;1.20;1.00;;;20.10;47.70;;;;;;5077979;28;20024;-52
2022/01/12 03:53:57;;;;;;;0.80;0.80;;;20.20;47.80;;;;;;5099761;28;20036;-50
2022/01/12 03:56:23;;;;;;;1.50;0.85;;;20.20;47.50;;;;;;5102714;28;20031;-50
2022/01/12 03:58:49;;;;;;;1.50;1.00;;;20.20;47.50;;;;;;5102501;28;20054;-49
2022/01/12 04:01:15;;;;;;;0.88;0.70;;;20.10;47.60;;;;;;5103202;28;20024;-50
2022/01/12 04:03:45;;;;;;;1.10;0.73;;;20.10;47.60;;;;;;5103306;28;20443;-50
2022/01/12 04:08:56;;;;;;;0.98;0.88;;;20.10;47.70;;;;;;5102883;28;20031;-48
2022/01/12 04:11:22;;;;;;;1.30;1.00;;;20.20;47.80;;;;;;5103720;28;20086;-48
2022/01/12 04:13:50;;;;;;;1.10;0.90;;;20.20;47.80;;;;;;5104984;28;20040;-49
2022/01/12 04:16:16;;;;;;;1.48;0.93;;;20.20;47.60;;;;;;5097357;28;20040;-49
2022/01/12 04:18:42;;;;;;;0.82;0.80;;;20.20;47.50;;;;;;5088638;28;20170;-50
2022/01/12 04:21:10;;;;;;;1.38;0.98;;;20.10;47.50;;;;;;5090802;28;20052;-49
2022/01/12 04:23:37;;;;;;;1.23;0.85;;;20.00;47.60;;;;;;5100842;28;20035;-48
2022/01/12 04:26:09;;;;;;;1.17;0.77;;;20.10;48.20;;;;;;5092848;28;20040;-51
2022/01/12 04:28:39;;;;;;;1.20;0.90;;;20.10;47.70;;;;;;5094782;28;20032;-48
2022/01/12 04:31:05;;;;;;;1.17;0.90;;;20.20;47.80;;;;;;5102653;28;20028;-48
2022/01/12 04:33:32;;;;;;;1.55;1.00;;;20.20;47.50;;;;;;5101360;28;20021;-51
2022/01/12 04:35:58;;;;;;;1.88;0.95;;;20.10;47.50;;;;;;5103437;28;20036;-48
2022/01/12 04:38:27;;;;;;;1.52;1.13;;;20.10;47.50;;;;;;5102975;28;20016;-50
2022/01/12 04:40:53;;;;;;;1.52;1.08;;;20.00;47.50;;;;;;5102897;28;20115;-48
2022/01/12 04:43:19;;;;;;;2.75;1.00;;;19.90;47.60;;;;;;5103058;28;20118;-49
2022/01/12 04:50:49;;;;;;;1.58;1.05;;;19.90;47.60;;;;;;5094474;28;20032;-47
2022/01/12 04:53:15;;;;;;;1.45;1.00;;;20.00;47.60;;;;;;5092811;28;20021;-48
2022/01/12 04:55:42;;;;;;;1.00;0.90;;;19.90;47.40;;;;;;5093587;28;20136;-47
2022/01/12 04:58:08;;;;;;;1.52;1.08;;;19.90;47.40;;;;;;5101307;28;20032;-48
2022/01/12 05:00:35;;;;;;;1.33;0.90;;;19.80;47.40;;;;;;5101608;28;20031;-49
2022/01/12 05:13:44;;;;;;;1.38;0.90;;;19.90;47.50;;;;;;5099828;28;20035;-48
2022/01/12 05:16:10;;;;;;;1.33;0.95;;;19.80;48.10;;;;;;5103756;28;20031;-47
2022/01/12 05:18:37;;;;;;;1.27;1.00;;;19.70;47.50;;;;;;5085627;28;20467;-49
2022/01/12 05:21:03;;;;;;;1.70;0.98;;;19.70;47.60;;;;;;5098935;28;20106;-48
2022/01/12 05:23:29;;;;;;;1.65;0.98;;;19.80;47.70;;;;;;5104326;28;20809;-50
2022/01/12 05:25:55;;;;;;;1.33;0.90;;;19.80;47.70;;;;;;5103178;28;20028;-48
2022/01/12 05:28:22;;;;;;;1.38;0.85;;;19.80;47.70;;;;;;5104087;28;20459;-48
2022/01/12 05:30:48;;;;;;;0.90;0.67;;;19.80;47.60;;;;;;5104773;28;20032;-49
2022/01/12 05:33:15;;;;;;;2.00;1.15;;;19.70;47.60;;;;;;5103291;28;20035;-48
2022/01/12 05:35:42;;;;;;;1.30;0.70;;;19.60;47.60;;;;;;5104692;28;20023;-48
2022/01/12 05:38:10;;;;;;;1.30;0.90;;;19.70;47.70;;;;;;5101550;28;20043;-48
2022/01/12 05:40:37;;;;;;;1.13;0.77;;;19.80;47.80;;;;;;5081725;28;20020;-47
2022/01/12 05:43:03;;;;;;;0.75;0.60;;;19.80;47.80;;;;;;5105464;28;20028;-47
2022/01/12 05:45:32;;;;;;;1.38;0.80;;;19.80;47.60;;;;;;5103928;28;20044;-49
2022/01/12 05:50:25;;;;;;;1.77;1.15;;;19.70;47.60;;;;;;5085557;28;20050;-48
2022/01/12 05:52:51;;;;;;;1.27;0.90;;;19.70;47.70;;;;;;5104448;28;20046;-49
2022/01/12 05:55:18;;;;;;;1.30;0.90;;;19.70;47.80;;;;;;5103579;28;20028;-49
2022/01/12 05:57:44;;;;;;;1.10;1.00;;;19.70;47.90;;;;;;5104203;28;20027;-48
2022/01/12 06:00:12;;;;;;;1.45;0.95;;;19.80;47.90;;;;;;5090383;28;20030;-47
2022/01/12 06:02:39;;;;;;;0.93;0.70;;;19.80;47.70;;;;;;5104130;28;20016;-48
2022/01/12 06:05:05;;;;;;;0.98;0.88;;;19.70;47.60;;;;;;5103544;28;20058;-48
2022/01/12 06:07:31;;;;;;;2.10;1.05;;;19.70;47.60;;;;;;5103320;28;20020;-49
2022/01/12 06:09:57;;;;;;;1.00;0.90;;;19.60;47.70;;;;;;5104035;28;20056;-49
2022/01/12 06:12:24;;;;;;;1.00;0.80;;;19.70;47.70;;;;;;5113804;28;20016;-47
2022/01/12 06:14:50;;;;;;;1.92;0.90;;;19.80;47.80;;;;;;5100891;28;20043;-49
2022/01/12 06:17:16;;;;;;;1.02;0.77;;;19.80;48.50;;;;;;5110289;28;20027;-49
2022/01/12 06:19:42;;;;;;;1.48;0.90;;;19.80;47.80;;;;;;5103695;28;20024;-48
2022/01/12 06:22:08;;;;;;;1.50;0.80;;;19.80;47.60;;;;;;5115992;28;20077;-47
2022/01/12 06:24:34;;;;;;;1.30;0.93;;;19.70;47.60;;;;;;5100049;28;20050;-51
2022/01/12 06:27:01;;;;;;;0.82;0.60;;;19.70;47.80;;;;;;5101969;28;20036;-48
2022/01/12 06:29:40;;;;;;;0.80;0.70;;;19.70;47.80;;;;;;5102781;28;20036;-49
2022/01/12 06:32:07;;;;;;;1.20;0.90;;;19.80;48.00;;;;;;5103291;28;20078;-47
2022/01/12 06:34:33;;;;;;;1.63;1.05;;;19.80;47.80;;;;;;5084844;28;20020;-47
2022/01/12 06:36:59;;;;;;;0.82;0.75;;;19.80;47.70;;;;;;5103263;28;20055;-49
2022/01/12 06:39:26;;;;;;;1.40;1.00;;;19.70;47.60;;;;;;5103432;28;20079;-48
2022/01/12 06:41:54;;;;;;;1.10;0.80;;;19.70;47.80;;;;;;5087161;28;20038;-49
2022/01/12 06:44:20;;;;;;;2.10;1.20;;;19.70;47.80;;;;;;5084625;28;20028;-47
2022/01/12 06:46:50;;;;;;;1.50;1.07;;;19.80;47.90;;;;;;5085058;28;19912;-47
2022/01/12 06:49:16;;;;;;;1.15;0.85;;;19.80;47.90;;;;;;5102935;28;20047;-48
2022/01/12 06:51:46;;;;;;;1.27;0.90;;;19.80;47.60;;;;;;5102999;28;20032;-46
2022/01/12 06:54:13;;;;;;;1.75;1.10;;;19.80;47.70;;;;;;5102681;28;20040;-47
2022/01/12 06:56:39;;;;;;;;;;;19.70;47.60;;;;;;5103401;28;20020;-48
2022/01/12 06:59:06;;;;;;;1.13;0.85;;;19.70;48.20;;;;;;5101156;28;19904;-47
2022/01/12 07:01:32;;;;;;;1.27;0.98;;;19.70;47.70;;;;;;5101972;28;20031;-48
2022/01/12 07:03:59;;;;;;;1.23;0.73;;;19.80;47.80;;;;;;5102882;28;20024;-48
2022/01/12 07:06:25;;;;;;;1.38;0.90;;;19.80;47.80;;;;;;5102587;28;20317;-49
2022/01/12 07:08:51;;;;;;;1.65;0.88;;;19.90;47.60;;;;;;5103338;28;20027;-47
2022/01/12 07:11:17;;;;;;;0.80;0.70;;;19.80;47.70;;;;;;5108362;28;20055;-48
2022/01/12 07:13:43;;;;;;;1.52;0.98;;;19.80;47.50;;;;;;5106890;28;20050;-50
2022/01/12 07:16:10;;;;;;;1.42;0.90;;;19.70;47.50;;;;;;5100731;28;20024;-49
2022/01/12 07:18:37;;;;;;;1.30;1.00;;;19.70;47.70;;;;;;5108301;28;20031;-47
2022/01/12 07:21:03;;;;;;;1.40;1.00;;;19.80;47.80;;;;;;5085061;28;20035;-49
2022/01/12 07:23:30;;;;;;;1.90;1.10;;;19.80;47.90;;;;;;5102233;28;20031;-49
2022/01/12 07:25:56;;;;;;;1.00;0.90;;;19.90;47.80;;;;;;5082729;28;20034;-47
2022/01/12 07:28:22;;;;;;;1.48;0.80;;;19.80;47.70;;;;;;5100734;28;20472;-49
2022/01/12 07:30:48;;;;;;;1.50;1.00;;;19.70;47.70;;;;;;5071885;28;20024;-48
2022/01/12 07:33:14;;;;;;;1.35;0.77;;;19.70;47.70;;;;;;5102422;28;20062;-49
2022/01/12 07:35:41;;;;;;;1.73;0.95;;;19.70;47.70;;;;;;5094067;28;20032;-47
2022/01/12 07:38:07;;;;;;;1.38;0.98;;;19.80;47.80;;;;;;5083910;28;20032;-47
2022/01/12 07:40:35;;;;;;;1.98;0.85;;;19.80;47.90;;;;;;5102845;28;20020;-48
2022/01/12 07:43:07;;;;;;;1.10;0.82;;;19.80;47.70;;;;;;5102162;28;20051;-48
2022/01/12 07:45:34;;;;;;;1.33;0.90;;;19.80;47.80;;;;;;5113459;28;20039;-47
2022/01/12 07:48:00;;;;;;;1.50;1.00;;;19.70;47.60;;;;;;5103652;28;20024;-48
2022/01/12 07:50:27;;;;;;;1.50;0.80;;;19.70;47.80;;;;;;5084842;28;20088;-47
2022/01/12 07:52:53;;;;;;;1.13;0.75;;;19.70;47.80;;;;;;5102258;28;20683;-48
2022/01/12 07:55:21;;;;;;;0.98;0.70;;;19.80;47.90;;;;;;5102255;28;20040;-48
2022/01/12 07:57:47;;;;;;;;;;;19.90;48.00;;;;;;5103038;28;20032;-47
2022/01/12 08:00:14;;;;;;;2.05;1.13;;;19.90;47.70;;;;;;5101748;28;19982;-47
2022/01/12 08:02:40;;;;;;;1.65;0.93;;;19.80;47.70;;;;;;5095501;28;20025;-48
2022/01/12 08:05:06;;;;;;;1.38;0.82;;;19.70;47.60;;;;;;5098982;28;20040;-52
2022/01/12 08:07:38;;;;;;;1.15;0.70;;;19.70;47.80;;;;;;5096436;28;20763;-47
2022/01/12 08:10:05;;;;;;;1.10;0.82;;;19.80;47.70;;;;;;5105345;28;20071;-47
2022/01/12 08:12:31;;;;;;;;;;;19.90;47.90;;;;;;5097092;28;20040;-50
2022/01/12 08:14:58;;;;;;;1.63;1.17;;;19.90;47.70;;;;;;5100130;28;20370;-48
2022/01/12 08:17:24;;;;;;;1.42;1.05;;;19.80;47.60;;;;;;5092753;28;20572;-48
2022/01/12 08:19:53;;;;;;;1.23;0.90;;;19.80;47.60;;;;;;5091014;28;20035;-48
2022/01/12 08:22:20;;;;;;;1.73;1.02;;;19.70;47.70;;;;;;5102293;28;20137;-49
2022/01/12 08:24:46;;;;;;;0.88;0.75;;;19.80;47.70;;;;;;5094273;28;20035;-47
2022/01/12 08:27:12;;;;;;;1.58;0.90;;;19.90;47.80;;;;;;5098813;28;20028;-48
2022/01/12 08:29:38;;;;;;;1.55;0.82;;;19.90;47.80;;;;;;5090039;28;20100;-50
2022/01/12 08:32:04;;;;;;;1.70;0.80;;;19.90;47.60;;;;;;5100866;28;20027;-47
2022/01/12 08:34:31;;;;;;;1.67;1.00;;;19.80;47.60;;;;;;5102275;28;20020;-47
2022/01/12 08:36:57;;;;;;;2.30;0.90;;;19.70;47.50;;;;;;5101996;28;20780;-47
2022/01/12 08:39:23;;;;;;;0.95;0.80;;;19.70;47.50;;;;;;5071195;28;20071;-48
2022/01/12 08:41:49;;;;;;;1.13;1.00;;;19.80;47.70;;;;;;5097616;28;20567;-47
2022/01/12 08:44:15;;;;;;;1.33;0.90;;;19.90;47.80;;;;;;5097439;28;20046;-48
2022/01/12 08:46:41;;;;;;;1.10;0.80;;;19.90;47.60;;;;;;5105968;28;20046;-47
2022/01/12 08:49:08;;;;;;;2.30;1.13;;;19.90;47.50;;;;;;5105911;28;20042;-48
2022/01/12 08:51:36;;;;;;;1.15;0.98;;;19.80;47.50;;;;;;5105792;28;20032;-48
2022/01/12 08:54:03;;;;;;;1.33;1.00;;;19.70;47.50;;;;;;5104322;28;20498;-48
2022/01/12 08:56:29;;;;;;;1.55;0.98;;;19.80;47.60;;;;;;5105002;28;20027;-47
2022/01/12 08:58:55;;;;;;;1.38;0.93;;;19.80;47.70;;;;;;5099623;28;20036;-47
2022/01/12 09:01:21;;;;;;;1.65;0.90;;;19.90;47.80;;;;;;5098632;28;20024;-50
2022/01/12 09:03:47;;;;;;;2.58;1.02;;;19.90;47.60;;;;;;5105279;28;20028;-48
2022/01/12 09:06:14;;;;;;;1.23;0.90;;;19.90;47.50;;;;;;5080682;28;20087;-48
2022/01/12 09:08:41;;;;;;;1.45;1.00;;;19.80;47.40;;;;;;5118642;28;20031;-47
2022/01/12 09:11:07;;;;;;;;;;;19.80;47.60;;;;;;5091378;28;20044;-48
2022/01/12 09:13:33;;;;;;;1.27;0.98;;;19.80;47.50;;;;;;5110168;28;19918;-49
2022/01/12 09:16:06;;;;;;;1.38;0.90;;;19.90;47.60;;;;;;5103562;28;20127;-47
2022/01/12 09:18:35;;;;;;;1.30;0.95;;;19.90;47.70;;;;;;5098973;28;20031;-47
2022/01/12 09:21:02;;;;;;;1.48;0.85;;;19.90;47.50;;;;;;5106023;28;20087;-49
2022/01/12 09:23:28;;;;;;;1.40;0.82;;;19.90;47.40;;;;;;5104748;28;20039;-49
2022/01/12 09:25:54;;;;;;;2.35;0.90;;;19.90;47.40;;;;;;5103294;28;20039;-50
2022/01/12 09:28:20;;;;;;;1.83;0.90;;;19.80;47.40;;;;;;5104569;28;20038;-48
2022/01/12 09:30:46;;;;;;;0.98;0.88;;;19.80;47.50;;;;;;5080136;28;20028;-47
2022/01/12 09:33:12;;;;;;;1.60;1.15;;;19.90;47.60;;;;;;5104743;28;20160;-50
2022/01/12 09:35:38;;;;;;;1.50;1.00;;;19.90;47.60;;;;;;5106492;28;20095;-49
2022/01/12 09:38:04;;;;;;;1.35;1.10;;;20.00;47.40;;;;;;5106052;28;20500;-48
2022/01/12 09:40:31;;;;;;;1.38;0.90;;;19.90;47.30;;;;;;5104730;28;20024;-49
2022/01/12 09:43:02;;;;;;;1.20;0.95;;;19.90;47.40;;;;;;5104726;28;20020;-47
2022/01/12 09:45:28;;;;;;;2.67;1.25;;;19.80;47.40;;;;;;5104455;28;20086;-47
2022/01/12 09:47:54;;;;;;;1.65;1.20;;;19.80;47.50;;;;;;5103892;28;20035;-49
2022/01/12 09:50:22;;;;;;;1.17;0.90;;;19.90;47.40;;;;;;5104570;28;20035;-48
2022/01/12 09:52:49;;;;;;;1.42;1.00;;;19.90;47.50;;;;;;5104418;28;20028;-48
2022/01/12 09:55:16;;;;;;;1.50;1.00;;;20.00;47.50;;;;;;5103923;28;20016;-47
2022/01/12 09:57:42;;;;;;;1.70;1.10;;;19.90;47.40;;;;;;5104260;28;20043;-47
2022/01/12 10:00:09;;;;;;;1.55;1.00;;;19.90;47.40;;;;;;5091187;28;20033;-49
2022/01/12 10:02:35;;;;;;;1.83;1.20;;;19.80;47.40;;;;;;5104903;28;20024;-47
2022/01/12 10:05:03;;;;;;;1.80;0.88;;;19.80;47.40;;;;;;5103366;28;20047;-48
2022/01/12 10:07:29;;;;;;;1.60;1.13;;;19.90;47.50;;;;;;5104322;28;20061;-48
2022/01/12 10:10:00;;;;;;;1.85;1.15;;;19.90;47.50;;;;;;5103910;28;20131;-47
2022/01/12 10:12:27;;;;;;;1.60;0.93;;;20.00;47.40;;;;;;5099159;28;20020;-47
2022/01/12 10:15:01;;;;;;;1.60;0.90;;;19.90;47.30;;;;;;5104025;28;20024;-46
2022/01/12 10:17:35;;;;;;;1.60;1.10;;;19.90;47.30;;;;;;5103348;28;20044;-48
2022/01/12 10:20:11;;;;;;;1.23;1.00;;;19.80;47.40;;;;;;5103888;28;20052;-47
2022/01/12 10:22:44;;;;;;;1.20;1.02;;;19.80;47.50;;;;;;5107002;28;20032;-47
2022/01/12 10:25:18;;;;;;;1.50;1.05;;;19.90;47.60;;;;;;5086397;28;20024;-50
2022/01/12 10:27:44;;;;;;;0.95;0.85;;;19.90;47.60;;;;;;5102354;28;20020;-47
2022/01/12 10:30:21;;;;;;;1.75;1.05;;;19.90;47.40;;;;;;5092366;28;20438;-48
2022/01/12 10:33:16;;;;;;;2.08;1.02;;;19.90;47.40;;;;;;5103820;28;20070;-50
2022/01/12 10:35:42;;;;;;;1.38;1.00;;;19.80;47.40;;;;;;5103838;28;20056;-47
2022/01/12 10:38:12;;;;;;;1.10;0.50;;;19.80;47.60;;;;;;5103564;28;20096;-47
2022/01/12 10:41:04;;;;;;;1.52;1.02;;;19.80;47.50;;;;;;5103994;28;20030;-47
2022/01/12 10:43:36;;;;;;;1.00;0.90;;;19.90;47.60;;;;;;5103841;28;20118;-48
2022/01/12 10:46:10;;;;;;;1.13;1.00;;;20.00;47.50;;;;;;5103286;28;20036;-47
2022/01/12 10:48:47;;;;;;;1.65;1.05;;;19.90;47.40;;;;;;5103616;28;20035;-47
2022/01/12 10:51:17;;;;;;;3.88;0.93;;;19.80;47.40;;;;;;5085610;28;20061;-48
2022/01/12 10:53:43;;;;;;;2.22;1.20;;;19.80;47.50;;;;;;5103366;28;20024;-49
2022/01/12 10:56:11;;;;;;;2.33;1.27;;;19.80;47.50;;;;;;5094839;28;20055;-48
2022/01/12 10:58:42;;;;;;;1.48;1.00;;;19.90;47.60;;;;;;5102908;28;20489;-47
2022/01/12 11:01:09;;;;;;;1.88;1.10;;;19.90;47.60;;;;;;5103636;28;20356;-47
2022/01/12 11:03:36;;;;;;;1.38;0.98;;;20.00;47.40;;;;;;5085081;28;20052;-46
2022/01/12 11:06:02;;;;;;;1.20;0.90;;;19.90;47.30;;;;;;5101999;28;20051;-49
2022/01/12 11:08:28;;;;;;;1.33;0.98;;;19.80;47.30;;;;;;5103111;28;20049;-48
2022/01/12 11:10:56;;;;;;;2.15;1.15;;;19.80;47.40;;;;;;5115519;28;20676;-49
2022/01/12 11:13:24;;;;;;;2.00;1.10;;;19.80;48.00;;;;;;5091754;28;20058;-45
2022/01/12 11:15:50;;;;;;;1.25;0.90;;;19.90;47.50;;;;;;5103509;28;20058;-46
2022/01/12 11:18:17;;;;;;;1.30;1.00;;;19.90;47.50;;;;;;5084227;28;20029;-48
2022/01/12 11:20:43;;;;;;;2.25;1.13;;;19.90;47.40;;;;;;5084681;28;20035;-48
2022/01/12 11:23:14;;;;;;;1.80;0.93;;;19.90;47.30;;;;;;5084856;28;20027;-50
2022/01/12 11:25:51;;;;;;;1.23;1.00;;;19.90;47.40;;;;;;5102029;28;20102;-46
2022/01/12 11:28:25;;;;;;;2.10;1.20;;;19.80;47.40;;;;;;5097258;28;20020;-48
2022/01/12 11:30:51;;;;;;;1.50;1.10;;;19.80;47.50;;;;;;5094488;28;20054;-51
2022/01/12 11:33:18;;;;;;;1.52;0.90;;;19.90;47.50;;;;;;5102586;28;20081;-48
2022/01/12 11:35:47;;;;;;;1.95;1.27;;;19.90;47.50;;;;;;5103002;28;20131;-47
2022/01/12 11:38:26;;;;;;;1.70;1.10;;;20.00;47.40;;;;;;5102373;28;20024;-49
2022/01/12 11:40:57;;;;;;;1.45;1.02;;;19.90;47.30;;;;;;5101789;28;20020;-48
2022/01/12 11:43:27;;;;;;;1.60;1.20;;;19.90;47.30;;;;;;5102906;28;20024;-48
2022/01/12 11:46:10;;;;;;;1.17;0.80;;;19.80;47.30;;;;;;5102634;28;20036;-47
2022/01/12 11:48:41;;;;;;;1.20;0.90;;;19.80;47.40;;;;;;5085283;28;20032;-47
2022/01/12 11:51:07;;;;;;;1.10;1.00;;;19.90;47.50;;;;;;5102881;28;20024;-49
2022/01/12 11:53:53;;;;;;;1.52;1.08;;;19.90;47.50;;;;;;5102605;28;20119;-49
2022/01/12 11:56:24;;;;;;;2.30;1.30;;;20.00;47.50;;;;;;5087303;28;20372;-48
2022/01/12 11:59:13;;;;;;;1.23;0.90;;;19.90;47.30;;;;;;5101485;28;20019;-48
2022/01/12 12:01:45;;;;;;;1.58;0.98;;;19.90;47.30;;;;;;5095167;28;20044;-49
2022/01/12 12:04:31;;;;;;;2.20;1.30;;;19.80;47.40;;;;;;5094083;28;20182;-50
2022/01/12 12:07:13;;;;;;;1.42;0.98;;;19.80;47.60;;;;;;5088258;28;20039;-47
2022/01/12 12:09:42;;;;;;;1.80;0.90;;;19.90;47.40;;;;;;5102569;28;20040;-48
2022/01/12 12:12:16;;;;;;;1.15;1.00;;;19.90;47.40;;;;;;5102245;28;20036;-48
2022/01/12 12:14:44;;;;;;;1.75;1.00;;;19.90;47.30;;;;;;5101575;28;20031;-50
2022/01/12 12:17:10;;;;;;;1.30;0.90;;;19.90;47.30;;;;;;5098488;28;20035;-48
2022/01/12 12:19:37;;;;;;;1.58;1.17;;;19.80;47.30;;;;;;5105822;28;20050;-50
2022/01/12 12:22:14;;;;;;;1.23;1.10;;;19.80;47.40;;;;;;5115025;28;20038;-48
2022/01/12 12:24:40;;;;;;;2.60;1.10;;;19.90;47.40;;;;;;5098387;28;20123;-49
2022/01/12 12:27:09;;;;;;;1.83;1.00;;;19.90;47.40;;;;;;5101382;28;20028;-47
2022/01/12 12:29:35;;;;;;;1.42;1.20;;;20.00;47.40;;;;;;5099570;28;20031;-47
2022/01/12 12:32:02;;;;;;;1.58;0.90;;;20.00;47.30;;;;;;5104181;28;20035;-49
2022/01/12 12:34:29;;;;;;;1.42;1.00;;;19.90;47.20;;;;;;5106198;28;20031;-48
2022/01/12 12:37:03;;;;;;;1.45;1.02;;;19.80;47.20;;;;;;5097470;28;20027;-48
2022/01/12 12:39:32;;;;;;;1.38;1.00;;;19.80;47.40;;;;;;5102926;28;20029;-48
2022/01/12 12:41:58;;;;;;;1.60;1.10;;;19.90;47.40;;;;;;5084973;28;20024;-49
2022/01/12 12:44:28;;;;;;;1.00;0.90;;;19.90;47.40;;;;;;5106355;28;20049;-47
2022/01/12 12:47:18;;;;;;;1.38;1.10;;;20.00;47.20;;;;;;5105224;28;20036;-50
2022/01/12 12:49:52;;;;;;;2.33;1.30;;;19.90;47.20;;;;;;5105410;28;20174;-47
2022/01/12 12:52:35;;;;;;;1.20;0.98;;;19.80;47.20;;;;;;5097393;28;20445;-48
2022/01/12 12:55:06;;;;;;;1.13;0.90;;;19.80;47.30;;;;;;5081896;28;20039;-47
2022/01/12 12:57:32;;;;;;;1.52;1.10;;;19.80;47.20;;;;;;5104329;28;20087;-46
2022/01/12 13:00:11;;;;;;;1.65;1.27;;;19.90;47.20;;;;;;5104418;28;20028;-45
2022/01/12 13:02:39;;;;;;;1.40;0.93;;;20.00;47.40;;;;;;5105353;28;20114;-49
2022/01/12 13:05:07;;;;;;;1.00;0.82;;;19.90;47.20;;;;;;5105577;28;20032;-48
2022/01/12 13:07:41;;;;;;;1.48;1.05;;;19.90;47.20;;;;;;5104706;28;20036;-50
2022/01/12 13:10:11;;;;;;;1.63;1.02;;;19.80;47.00;;;;;;5107646;28;20409;-46
2022/01/12 13:12:45;;;;;;;1.05;0.93;;;19.80;47.20;;;;;;5102300;28;20044;-49
2022/01/12 13:15:17;;;;;;;1.33;0.90;;;19.80;47.20;;;;;;5101623;28;20044;-50
2022/01/12 13:17:43;;;;;;;1.85;1.08;;;19.90;47.20;;;;;;5082910;28;20020;-47
2022/01/12 13:22:49;;;;;;;1.05;0.90;;;20.00;47.20;;;;;;5101858;28;20031;-46
2022/01/12 13:25:16;;;;;;;2.38;0.93;;;19.90;47.10;;;;;;5094737;28;20044;-48
2022/01/12 13:27:43;;;;;;;1.65;1.00;;;19.80;47.10;;;;;;5099026;28;20104;-47
2022/01/12 13:30:11;;;;;;;1.40;1.02;;;19.80;47.20;;;;;;5099410;28;20044;-47
2022/01/12 13:32:38;;;;;;;2.05;1.15;;;19.80;47.10;;;;;;5083394;28;20020;-47
2022/01/12 13:35:08;;;;;;;1.70;1.15;;;19.90;47.30;;;;;;5101931;28;20028;-49
2022/01/12 13:37:34;;;;;;;1.55;1.10;;;20.00;47.30;;;;;;5091027;28;20042;-46
2022/01/12 13:40:07;;;;;;;1.60;1.08;;;20.00;47.30;;;;;;5091221;28;20031;-46
2022/01/12 13:42:33;;;;;;;2.08;1.30;;;19.90;47.20;;;;;;5094540;28;20032;-46
2022/01/12 13:45:08;;;;;;;1.70;1.05;;;19.80;47.10;;;;;;5101302;28;20035;-48
2022/01/12 13:47:36;;;;;;;1.48;0.95;;;19.80;47.20;;;;;;5086075;28;20371;-49
2022/01/12 13:50:04;;;;;;;1.75;1.13;;;19.80;47.20;;;;;;5081766;28;20083;-48
2022/01/12 13:52:30;;;;;;;1.38;0.95;;;19.90;47.30;;;;;;5102487;28;20043;-47
2022/01/12 13:55:08;;;;;;;1.25;1.00;;;20.00;47.30;;;;;;5104168;28;20024;-47
2022/01/12 13:57:34;;;;;;;1.60;1.10;;;20.00;47.20;;;;;;5083455;28;20069;-48
2022/01/12 14:00:00;;;;;;;1.60;1.13;;;19.90;47.10;;;;;;5095270;28;20579;-47
2022/01/12 14:02:29;;;;;;;1.35;1.00;;;19.80;47.10;;;;;;5096090;28;20024;-46
2022/01/12 14:05:07;;;;;;;1.42;1.10;;;19.80;47.30;;;;;;5096666;28;20780;-47
2022/01/12 14:07:38;;;;;;;1.10;0.88;;;19.90;47.30;;;;;;5094354;28;20413;-46
2022/01/12 14:10:06;;;;;;;1.45;1.08;;;19.90;47.30;;;;;;5082064;28;21372;-48
2022/01/12 14:12:33;;;;;;;1.65;1.20;;;20.00;47.30;;;;;;5090921;28;20035;-48
2022/01/12 14:15:00;;;;;;;1.77;1.23;;;19.90;47.20;;;;;;5091504;28;20032;-47
2022/01/12 14:17:40;;;;;;;2.22;1.20;;;19.90;47.10;;;;;;5098769;28;20047;-47